Startpagina
METAR-TAF:

METAR-TAF

Vliegvelden :

Big Piney / Marbleton, Wyoming, Verenigde Staten

breedte: 42-34-44N, lengte: 110-06-11W, hoogte: 2126 m

Actueel weer

Dit bericht is 40 minuten geleden gemaakt, om 15:53 UTC
Weinig wind
Temperatuur -14°C
Vochtigheid 85%
Druk 1023 hPa
Zicht: 16.1 km
Verspreide wolken op 4200 ft

METAR: KBPI 231553Z AUTO 00000KT 10SM SCT042 M14/M16 A3021 RMK AO2 SLP293 T11391156

Tijdstip: 09:33 (16:33 UTC)

Verwachting

Dit bericht is 5 uur en het 4 minuten geleden gemaakt, om 11:29 UTC
Verwachting geldig van 23 om 12 UTC tot 24 om 12 UTC
Wind 5 kt uit variabele richting
Zicht: 10 km
Gebroken wolken op 3500 ft
buien in de omgeving
Tijdelijke
van 23 om 12 UTC tot 23 om 14 UTC
Zicht: 9.7 km
Verspreide wolken op 2000 ft
Geheel bewolkt op 3000 ft
lichte sneeuw
Van 23 om 2200 UTC
Wind 7 kt uit het noordnoordwesten
Zicht: 10 km
Geheel bewolkt op 3500 ft

TAF: KBPI 231129Z 2312/2412 VRB05KT P6SM VCSH BKN035 TEMPO 2312/2314 6SM -SN SCT020 OVC030 FM232200 34007KT P6SM OVC035

Waarnemingen en weersverwachtingen van meer dan 4000 vliegvelden (METAR en TAF).

De beschikbare stations zijn de gele en rode punten op de kaart.

Ga met uw muis naar het station om de naam te zien.

Klik dan om waarnemingen en weersverwachtingen te zien.

kaart wijzigen: klik op de groene knoppen met een zwart kruis om in te zoomen, op de groene knop met een streepje om uit te zoomen of op de groene pijlen voor aangrenzende kaarten.


METAR-TAF: